LIMP/PMF METAR and TAF weather

Enter ICAO airport designator
Station Type Date Time Source
LIMP METAR 2021/07/27 20:50 UTC NOAA

LIMP 272050Z VRB02KT CAVOK 22/19 Q1015


Station Type Date Time Source
LIMP Decoded METAR 2021/07/27 20:50 UTC NOAA

Parma, Italy (LIMP) 44-49-17N 010-17-41E
Jul 27, 2021 - 04:50 PM EDT / 2021.07.27 2050 UTC
Wind: Variable at 2 MPH (2 KT):0
Visibility: greater than 7 mile(s):0
Temperature: 71 F (22 C)
Dew Point: 66 F (19 C)
Relative Humidity: 83%
Pressure (altimeter): 29.97 in. Hg (1015 hPa)
ob: LIMP 272050Z VRB02KT CAVOK 22/19 Q1015
cycle: 21

Station Type Date Time Source
LIMP TAF 2021/07/27 18:21 UTC NOAA

TAF LIMP 271700Z 2718/2818 VRB05KT 9999 FEW030
BECMG 2812/2814 02010KT

Example: see airport list